Time;durP1;ratioP1;P1;durP2;ratioP2;P2;SDS_P1;SDS_P2;PMS_P1;PMS_P2;Temp;Humidity;BMP_temperature;BMP_pressure;BME280_temperature;BME280_humidity;BME280_pressure;Samples;Min_cycle;Max_cycle;Signal;HPM_P1;HPM_P2
2023/07/09 00:00:17;;;;;;;9.82;4.75;;;;;;;19.86;83.87;100875.41;6155358;23;20479;-76
2023/07/09 00:03:20;;;;;;;11.98;4.53;;;;;;;19.78;83.83;100880.53;6155278;23;20028;-77
2023/07/09 00:06:24;;;;;;;9.75;4.78;;;;;;;19.73;84.19;100884.41;6155644;23;20036;-77
2023/07/09 00:09:28;;;;;;;7.75;4.65;;;;;;;19.68;84.26;100883.97;6155657;23;20093;-77
2023/07/09 00:12:32;;;;;;;7.07;4.70;;;;;;;19.68;84.65;100880.47;6155654;23;20024;-77
2023/07/09 00:15:35;;;;;;;11.05;4.68;;;;;;;19.65;84.68;100875.41;6155724;23;20024;-78
2023/07/09 00:18:40;;;;;;;8.15;4.28;;;;;;;19.62;85.04;100881.81;6155633;23;20355;-78
2023/07/09 00:21:45;;;;;;;8.55;4.78;;;;;;;19.64;85.05;100885.19;6154897;23;20023;-78
2023/07/09 00:24:56;;;;;;;6.80;4.03;;;;;;;19.61;84.86;100890.72;6137011;23;20088;-79
2023/07/09 00:27:59;;;;;;;6.70;4.85;;;;;;;19.60;84.69;100891.72;6137096;23;20056;-79
2023/07/09 00:31:03;;;;;;;9.07;5.35;;;;;;;19.56;84.96;100898.25;6155216;23;20024;-79
2023/07/09 00:34:13;;;;;;;11.48;6.63;;;;;;;19.54;85.27;100907.31;6155129;23;20464;-79
2023/07/09 00:37:21;;;;;;;11.02;5.35;;;;;;;19.54;84.82;100908.13;6155249;23;20147;-79
2023/07/09 00:40:25;;;;;;;9.13;5.18;;;;;;;19.49;84.71;100912.97;6155183;23;20067;-78
2023/07/09 00:43:36;;;;;;;7.55;5.50;;;;;;;19.41;84.65;100907.50;6136678;23;20056;-78
2023/07/09 00:46:48;;;;;;;7.20;4.95;;;;;;;19.33;85.11;100917.88;6155015;23;20360;-78
2023/07/09 00:50:01;;;;;;;8.43;4.20;;;;;;;19.33;85.20;100910.75;6155078;23;20099;-78
2023/07/09 00:53:32;;;;;;;10.70;4.47;;;;;;;19.32;84.93;100910.91;6154887;23;20403;-78
2023/07/09 00:56:50;;;;;;;6.30;4.30;;;;;;;19.33;84.87;100915.22;6136933;23;20075;-78
2023/07/09 00:59:59;;;;;;;6.95;4.03;;;;;;;19.27;84.72;100917.44;6154967;23;20405;-78
2023/07/09 01:03:04;;;;;;;5.82;4.25;;;;;;;19.23;84.58;100928.41;6136827;23;20484;-78
2023/07/09 01:06:09;;;;;;;8.32;4.40;;;;;;;19.14;84.87;100922.03;6154950;23;20032;-77
2023/07/09 01:09:17;;;;;;;7.75;4.63;;;;;;;19.10;84.80;100928.56;6154874;23;20024;-77
2023/07/09 01:13:36;;;;;;;;;;;;;;;;;;;;;
2023/07/09 01:23:07;;;;;;;10.20;4.50;;;;;;;18.96;85.44;100923.56;5869429;24;20033;-76
2023/07/09 01:27:10;;;;;;;6.93;4.43;;;;;;;18.96;85.21;100923.56;6022248;23;20030;-77
2023/07/09 01:30:39;;;;;;;7.85;4.95;;;;;;;18.93;85.31;100926.47;6154680;23;20109;-77
2023/07/09 01:33:47;;;;;;;8.95;4.97;;;;;;;18.87;84.95;100922.50;6136685;23;20068;-76
2023/07/09 01:36:51;;;;;;;6.50;4.75;;;;;;;18.75;85.48;100924.31;6136719;23;20024;-77
2023/07/09 01:39:54;;;;;;;6.93;4.22;;;;;;;18.76;85.27;100922.50;6154861;23;20027;-77
2023/07/09 01:43:00;;;;;;;11.15;5.57;;;;;;;18.76;84.76;100928.66;6154303;23;20363;-77
2023/07/09 01:46:08;;;;;;;11.25;5.00;;;;;;;18.69;84.95;100930.06;6154734;23;20032;-77
2023/07/09 01:49:11;;;;;;;8.90;4.50;;;;;;;18.64;85.05;100937.56;6154675;23;20372;-77
2023/07/09 01:52:18;;;;;;;6.22;3.83;;;;;;;18.60;85.51;100933.44;6154733;23;20080;-77
2023/07/09 01:55:22;;;;;;;6.78;4.53;;;;;;;18.49;85.30;100933.47;6137221;23;20031;-78
2023/07/09 01:58:25;;;;;;;8.05;4.75;;;;;;;18.44;85.29;100931.19;6136650;23;20024;-78
2023/07/09 02:01:30;;;;;;;7.85;4.57;;;;;;;18.39;85.59;100938.66;6136585;23;20022;-78
2023/07/09 02:04:33;;;;;;;8.43;4.35;;;;;;;18.33;85.69;100936.47;6154598;23;20076;-77
2023/07/09 02:07:39;;;;;;;6.55;4.80;;;;;;;18.30;85.91;100932.25;6156704;23;20072;-77
2023/07/09 02:10:50;;;;;;;7.68;4.32;;;;;;;18.31;85.51;100935.75;6138205;23;20517;-78
2023/07/09 02:13:52;;;;;;;6.22;4.22;;;;;;;18.27;85.04;100932.50;6156370;23;20093;-78
2023/07/09 02:16:57;;;;;;;7.45;4.85;;;;;;;18.19;85.23;100948.16;6156366;23;20505;-78
2023/07/09 02:20:04;;;;;;;8.05;4.47;;;;;;;18.21;85.59;100940.91;6156214;23;20035;-78
2023/07/09 02:23:08;;;;;;;7.68;5.07;;;;;;;18.23;85.01;100940.81;6138232;23;20025;-78
2023/07/09 02:26:11;;;;;;;8.63;3.75;;;;;;;18.22;85.04;100945.28;6156270;23;20033;-78
2023/07/09 02:29:14;;;;;;;9.68;4.25;;;;;;;18.21;85.04;100938.25;6156269;23;20104;-78
2023/07/09 02:32:21;;;;;;;11.05;5.03;;;;;;;18.17;85.24;100939.47;6156268;23;20024;-78
2023/07/09 02:35:25;;;;;;;9.80;4.03;;;;;;;18.13;85.07;100938.03;6156126;23;20466;-78
2023/07/09 02:38:28;;;;;;;9.20;4.38;;;;;;;18.07;84.98;100935.88;6138139;23;20056;-77
2023/07/09 02:41:34;;;;;;;8.32;4.53;;;;;;;18.11;85.03;100947.88;6155766;23;20471;-78
2023/07/09 02:44:43;;;;;;;9.25;4.45;;;;;;;18.05;85.18;100948.34;6125282;23;20152;-77
2023/07/09 02:47:47;;;;;;;7.75;3.85;;;;;;;18.07;85.06;100949.94;6108707;23;20025;-77
2023/07/09 02:50:54;;;;;;;10.32;4.40;;;;;;;18.02;84.79;100960.00;6126455;23;20227;-77
2023/07/09 02:54:00;;;;;;;9.90;4.05;;;;;;;17.98;85.11;100957.72;6125557;23;20025;-77
2023/07/09 02:57:03;;;;;;;8.43;4.65;;;;;;;17.94;84.92;100964.22;6108366;23;20033;-77
2023/07/09 03:00:11;;;;;;;6.72;4.28;;;;;;;17.90;84.97;100971.56;6126412;23;20028;-78
2023/07/09 03:03:14;;;;;;;7.57;4.70;;;;;;;17.84;85.17;100964.09;6125314;23;20097;-77
2023/07/09 03:06:19;;;;;;;7.70;4.60;;;;;;;17.81;85.75;100965.16;6126424;23;20041;-76
2023/07/09 03:09:24;;;;;;;11.23;4.72;;;;;;;17.81;85.43;100966.97;6125379;23;20038;-76
2023/07/09 03:12:29;;;;;;;8.07;4.13;;;;;;;17.81;85.54;100969.59;6125247;23;20100;-77
2023/07/09 03:15:36;;;;;;;7.78;4.15;;;;;;;17.77;85.86;100969.00;6126111;23;20028;-77
2023/07/09 03:18:43;;;;;;;8.32;4.47;;;;;;;17.82;85.41;100972.13;6125205;23;20045;-77
2023/07/09 03:21:46;;;;;;;8.98;4.47;;;;;;;17.82;85.35;100977.41;6126206;23;20527;-76
2023/07/09 03:24:49;;;;;;;7.82;4.30;;;;;;;17.80;85.26;100968.75;6126027;23;20356;-75
2023/07/09 03:27:53;;;;;;;9.23;4.13;;;;;;;17.75;85.17;100964.75;6126078;23;20037;-75
2023/07/09 03:30:58;;;;;;;6.00;4.28;;;;;;;17.65;85.60;100968.09;6126221;23;20097;-76
2023/07/09 03:34:01;;;;;;;7.97;4.55;;;;;;;17.60;85.81;100972.03;6126166;23;20064;-76
2023/07/09 03:37:05;;;;;;;7.40;4.40;;;;;;;17.55;85.58;100976.78;6124975;23;20025;-76
2023/07/09 03:40:20;;;;;;;11.15;4.57;;;;;;;17.50;85.93;100973.66;6126041;23;20080;-79
2023/07/09 03:43:25;;;;;;;8.57;4.57;;;;;;;17.49;86.07;100977.28;6134044;23;20032;-77
2023/07/09 03:46:29;;;;;;;6.28;4.22;;;;;;;17.50;86.42;100981.59;6136485;23;20029;-78
2023/07/09 03:49:33;;;;;;;5.80;3.90;;;;;;;17.52;86.18;100983.19;6154006;23;20028;-77
2023/07/09 03:52:37;;;;;;;8.25;4.65;;;;;;;17.51;86.00;100988.56;6136921;23;20040;-78
2023/07/09 03:55:42;;;;;;;8.43;4.65;;;;;;;17.46;86.08;100988.06;6154932;23;20093;-77
2023/07/09 03:58:48;;;;;;;6.68;4.32;;;;;;;17.50;86.14;100989.53;6154949;23;20033;-77
2023/07/09 04:01:53;;;;;;;7.28;4.47;;;;;;;17.48;86.12;100994.91;6155207;23;20079;-77
2023/07/09 04:04:56;;;;;;;9.88;4.00;;;;;;;17.49;86.04;100993.13;6155278;23;20072;-77
2023/07/09 04:08:01;;;;;;;9.90;5.32;;;;;;;17.46;86.27;100993.38;6155425;23;20028;-77
2023/07/09 04:11:04;;;;;;;7.97;4.18;;;;;;;17.47;86.32;100995.03;6155257;23;20024;-77
2023/07/09 04:14:10;;;;;;;11.30;4.15;;;;;;;17.52;85.84;101003.50;6155277;23;20359;-78
2023/07/09 04:17:13;;;;;;;7.70;4.43;;;;;;;17.41;86.47;101010.38;6155328;23;20028;-77
2023/07/09 04:20:17;;;;;;;6.20;4.13;;;;;;;17.38;86.12;101010.59;6155118;23;20075;-77
2023/07/09 04:23:21;;;;;;;7.85;4.28;;;;;;;17.45;86.33;101013.66;6155102;23;20097;-77
2023/07/09 04:26:27;;;;;;;8.07;4.32;;;;;;;17.42;86.33;101012.09;6155032;23;20029;-78
2023/07/09 04:29:35;;;;;;;8.25;4.30;;;;;;;17.34;86.17;101014.44;6155163;23;20029;-76
2023/07/09 04:32:38;;;;;;;11.73;5.22;;;;;;;17.35;86.36;101010.00;6137178;23;20084;-77
2023/07/09 04:35:41;;;;;;;8.27;4.80;;;;;;;17.34;85.95;101009.16;6154768;23;20064;-77
2023/07/09 04:38:47;;;;;;;6.03;3.72;;;;;;;17.41;86.69;101010.38;6154774;23;20407;-77
2023/07/09 04:41:51;;;;;;;7.43;4.45;;;;;;;17.52;86.67;101017.53;6154500;23;20104;-77
2023/07/09 04:44:57;;;;;;;13.35;4.63;;;;;;;17.48;86.66;101016.06;6154771;23;20163;-78
2023/07/09 04:48:06;;;;;;;8.63;4.88;;;;;;;17.49;86.89;101019.56;6155244;23;20141;-76
2023/07/09 04:51:09;;;;;;;7.72;4.40;;;;;;;17.60;86.77;101011.69;6154592;23;20088;-76
2023/07/09 04:54:14;;;;;;;7.35;4.13;;;;;;;17.60;86.71;101014.31;6154914;23;20024;-76
2023/07/09 04:57:22;;;;;;;8.02;4.70;;;;;;;17.60;86.63;101015.16;6154917;23;20226;-76
2023/07/09 05:00:26;;;;;;;7.95;3.85;;;;;;;17.57;86.67;101007.47;6153765;23;20072;-76
2023/07/09 05:03:30;;;;;;;10.85;4.57;;;;;;;17.62;86.53;101007.97;6153773;23;20474;-78
2023/07/09 05:06:35;;;;;;;8.38;4.13;;;;;;;17.70;85.75;101007.38;6153886;23;20060;-77
2023/07/09 05:09:40;;;;;;;6.07;4.03;;;;;;;17.72;85.37;101010.78;6154089;23;20217;-77
2023/07/09 05:12:51;;;;;;;8.52;3.88;;;;;;;17.70;85.55;101004.75;6154059;23;20040;-77
2023/07/09 05:15:55;;;;;;;9.13;4.65;;;;;;;17.74;84.90;101008.00;6136120;23;20134;-76
2023/07/09 05:18:58;;;;;;;8.48;4.00;;;;;;;17.84;84.71;101001.13;6153999;23;20037;-77
2023/07/09 05:22:03;;;;;;;7.78;4.32;;;;;;;17.93;84.30;101004.84;6154339;23;20028;-77
2023/07/09 05:25:09;;;;;;;8.70;3.90;;;;;;;18.08;84.33;100993.94;6154282;23;20356;-77
2023/07/09 05:28:13;;;;;;;7.05;4.60;;;;;;;18.07;83.99;100992.28;6153584;23;20033;-74
2023/07/09 05:31:16;;;;;;;8.05;4.10;;;;;;;18.13;83.41;100996.25;6153608;23;20040;-74
2023/07/09 05:34:19;;;;;;;8.27;4.25;;;;;;;18.17;83.51;100995.06;6153284;23;20029;-74
2023/07/09 05:37:25;;;;;;;8.95;4.75;;;;;;;18.25;83.47;100997.97;6153300;23;20426;-74
2023/07/09 05:40:28;;;;;;;7.22;4.13;;;;;;;18.29;83.11;100998.56;6154206;23;20024;-74
2023/07/09 05:43:32;;;;;;;10.23;4.18;;;;;;;18.24;83.44;101009.50;6155168;23;20085;-74
2023/07/09 05:46:36;;;;;;;8.75;4.00;;;;;;;18.31;83.42;101000.16;6155994;23;20534;-74
2023/07/09 05:49:41;;;;;;;6.43;4.18;;;;;;;18.43;83.93;101000.16;6155707;23;20032;-74
2023/07/09 05:52:45;;;;;;;8.18;4.25;;;;;;;18.48;83.99;101000.63;6155963;23;20473;-74
2023/07/09 05:55:55;;;;;;;11.00;4.10;;;;;;;18.54;83.37;100994.88;6156387;23;20091;-74
2023/07/09 05:58:59;;;;;;;8.32;4.20;;;;;;;18.60;83.48;100999.66;6156644;23;20071;-73
2023/07/09 06:02:03;;;;;;;6.85;4.22;;;;;;;18.71;83.45;100997.03;6156013;23;20040;-74
2023/07/09 06:05:10;;;;;;;6.47;4.10;;;;;;;18.84;83.32;101004.88;6120487;23;20178;-73
2023/07/09 06:08:14;;;;;;;7.13;4.25;;;;;;;18.84;82.59;101009.34;6155750;23;20040;-74
2023/07/09 06:11:17;;;;;;;10.05;4.68;;;;;;;18.86;82.67;101015.31;6155795;23;20071;-73
2023/07/09 06:14:21;;;;;;;6.32;4.13;;;;;;;18.96;82.69;101006.53;6156490;23;20355;-74
2023/07/09 06:17:27;;;;;;;9.88;4.85;;;;;;;19.06;82.75;101011.94;6154817;23;20072;-74
2023/07/09 06:20:31;;;;;;;6.47;4.53;;;;;;;19.14;81.94;101012.16;6155527;23;20029;-73
2023/07/09 06:23:37;;;;;;;8.07;4.50;;;;;;;19.21;82.05;101013.38;6155816;23;20100;-74
2023/07/09 06:26:40;;;;;;;8.55;4.07;;;;;;;19.36;82.49;101005.13;6155851;23;20076;-77
2023/07/09 06:29:43;;;;;;;9.65;4.63;;;;;;;19.51;82.33;101004.72;6156105;23;20025;-78
2023/07/09 06:32:46;;;;;;;9.00;5.82;;;;;;;19.61;82.15;101002.13;6155164;23;20025;-79
2023/07/09 06:35:57;;;;;;;9.15;5.30;;;;;;;19.69;81.84;100994.44;6155768;23;20096;-81
2023/07/09 06:39:04;;;;;;;10.07;4.63;;;;;;;19.82;82.35;100998.72;6155735;23;20072;-79
2023/07/09 06:42:10;;;;;;;12.07;5.20;;;;;;;19.94;82.75;100987.03;6155890;23;20027;-78
2023/07/09 06:46:00;;;;;;;7.60;4.90;;;;;;;20.06;82.86;100993.97;6153320;23;20084;-78
2023/07/09 06:49:07;;;;;;;10.20;5.10;;;;;;;20.17;83.21;100991.25;6156108;23;20407;-76
2023/07/09 06:52:10;;;;;;;7.65;4.70;;;;;;;20.31;82.77;100983.94;6156292;23;20044;-76
2023/07/09 06:55:17;;;;;;;9.60;5.32;;;;;;;20.41;82.70;100990.13;6155820;23;20024;-74
2023/07/09 06:58:27;;;;;;;10.45;5.40;;;;;;;20.52;83.04;100990.09;6155896;23;20028;-76
2023/07/09 07:01:30;;;;;;;13.13;5.28;;;;;;;20.62;82.88;100982.97;6137857;23;20028;-78
2023/07/09 07:04:34;;;;;;;10.02;4.93;;;;;;;20.74;83.01;100988.19;6151457;23;20028;-77
2023/07/09 07:07:42;;;;;;;7.85;4.55;;;;;;;20.85;82.90;100977.47;6116255;23;20076;-75
2023/07/09 07:10:48;;;;;;;8.50;4.82;;;;;;;20.94;82.60;100981.97;6152403;23;20148;-75
2023/07/09 07:13:51;;;;;;;8.23;4.72;;;;;;;21.05;82.54;100981.84;6153594;23;20052;-76
2023/07/09 07:16:56;;;;;;;9.55;5.22;;;;;;;21.16;81.76;100974.75;6152983;23;20024;-78
2023/07/09 07:19:59;;;;;;;9.32;4.60;;;;;;;21.28;80.60;100973.63;6155341;23;20355;-75
2023/07/09 07:23:03;;;;;;;7.38;4.10;;;;;;;21.38;80.39;100971.84;6137101;23;20028;-77
2023/07/09 07:26:07;;;;;;;9.88;4.75;;;;;;;21.45;79.93;100965.00;6137651;23;20512;-76
2023/07/09 07:29:12;;;;;;;8.90;4.88;;;;;;;21.57;78.93;100963.03;6155508;23;20027;-75
2023/07/09 07:32:15;;;;;;;9.38;4.60;;;;;;;21.64;79.07;100965.97;6154757;23;20595;-76
2023/07/09 07:35:19;;;;;;;7.38;4.40;;;;;;;21.76;77.30;100967.47;6155388;23;20119;-77
2023/07/09 07:38:22;;;;;;;9.73;4.90;;;;;;;21.87;76.74;100959.34;6154470;23;20028;-76
2023/07/09 07:41:28;;;;;;;8.52;4.32;;;;;;;21.98;76.57;100961.84;6155414;23;20063;-76
2023/07/09 07:44:32;;;;;;;5.93;4.40;;;;;;;22.18;75.06;100961.84;6124278;23;20048;-76
2023/07/09 07:47:35;;;;;;;7.75;4.80;;;;;;;22.33;74.15;100959.53;6124779;23;20029;-78
2023/07/09 07:50:40;;;;;;;7.10;4.43;;;;;;;22.34;73.69;100954.06;6125863;23;20049;-77
2023/07/09 07:53:44;;;;;;;8.13;4.28;;;;;;;22.43;73.37;100949.66;6125700;23;20024;-77
2023/07/09 07:56:47;;;;;;;5.47;4.43;;;;;;;22.55;72.43;100945.00;6125740;23;20029;-76
2023/07/09 07:59:50;;;;;;;6.10;4.20;;;;;;;22.66;72.16;100939.47;6125602;23;20028;-77
2023/07/09 08:02:54;;;;;;;6.28;4.60;;;;;;;22.81;71.91;100937.13;6125037;23;20106;-76
2023/07/09 08:06:00;;;;;;;9.65;5.00;;;;;;;22.92;70.86;100937.78;6125516;23;20025;-76
2023/07/09 08:09:03;;;;;;;7.90;4.95;;;;;;;23.02;71.55;100936.91;6125499;23;20130;-78
2023/07/09 08:12:12;;;;;;;8.52;4.78;;;;;;;23.10;71.17;100932.50;6125798;23;20029;-78
2023/07/09 08:15:16;;;;;;;9.68;4.90;;;;;;;23.24;70.66;100931.13;6125816;23;20025;-75
2023/07/09 08:18:19;;;;;;;6.40;4.40;;;;;;;23.30;69.91;100930.50;6125861;23;20069;-76
2023/07/09 08:21:26;;;;;;;9.30;4.13;;;;;;;23.56;68.58;100927.06;6125497;23;20076;-81
2023/07/09 08:24:32;;;;;;;9.38;4.63;;;;;;;23.63;68.99;100923.59;6125754;23;20052;-80
2023/07/09 08:27:36;;;;;;;6.85;4.65;;;;;;;23.73;68.48;100922.69;6124345;23;20024;-78
2023/07/09 08:30:39;;;;;;;10.27;4.60;;;;;;;23.86;69.14;100918.63;6125046;23;20025;-79
2023/07/09 08:33:45;;;;;;;6.15;4.40;;;;;;;24.12;68.24;100917.75;6124817;23;20029;-78
2023/07/09 08:36:49;;;;;;;10.50;5.10;;;;;;;24.14;67.09;100913.94;6125913;23;20025;-79
2023/07/09 08:39:56;;;;;;;8.85;4.88;;;;;;;24.42;67.13;100907.59;6125067;23;20044;-81
2023/07/09 08:43:12;;;;;;;7.60;4.82;;;;;;;24.58;67.16;100905.81;6126722;23;20081;-78
2023/07/09 08:46:37;;;;;;;9.57;4.72;;;;;;;24.85;65.52;100906.53;6154164;23;20534;-82
2023/07/09 08:49:47;;;;;;;9.05;4.30;;;;;;;24.90;65.06;100906.06;6154604;23;20045;-79
2023/07/09 08:52:59;;;;;;;11.35;4.70;;;;;;;25.14;64.53;100906.13;6155584;23;20080;-80
2023/07/09 08:56:03;;;;;;;7.90;4.72;;;;;;;25.40;64.03;100907.81;6154659;23;20474;-76
2023/07/09 08:59:15;;;;;;;10.00;5.20;;;;;;;25.45;64.29;100902.78;6154818;23;20029;-79
2023/07/09 09:02:35;;;;;;;6.57;4.38;;;;;;;25.48;64.35;100905.13;6153647;23;20043;-78
2023/07/09 09:05:43;;;;;;;10.95;4.75;;;;;;;25.67;64.13;100896.75;6153789;23;20032;-75
2023/07/09 09:09:22;;;;;;;11.43;6.00;;;;;;;25.80;63.38;100887.34;6154174;23;20533;-77
2023/07/09 09:12:40;;;;;;;14.50;6.40;;;;;;;25.89;63.14;100881.84;6154093;23;20024;-75
2023/07/09 09:15:46;;;;;;;10.88;4.38;;;;;;;26.05;63.19;100882.81;6156425;23;20029;-74
2023/07/09 09:18:54;;;;;;;8.75;4.25;;;;;;;26.24;61.76;100881.56;6156964;23;20028;-83
2023/07/09 09:22:05;;;;;;;7.88;4.60;;;;;;;26.41;61.24;100867.91;6155248;23;20466;-77
2023/07/09 09:25:16;;;;;;;12.30;5.05;;;;;;;26.54;60.36;100870.03;6156680;23;20044;-80
2023/07/09 09:28:19;;;;;;;9.30;4.70;;;;;;;26.59;61.23;100874.88;6155869;23;20064;-82
2023/07/09 09:31:33;;;;;;;11.02;4.68;;;;;;;26.63;60.25;100862.78;6155789;23;20337;-78
2023/07/09 09:34:35;;;;;;;9.68;4.60;;;;;;;26.75;59.50;100864.06;6155485;23;20033;-80
2023/07/09 09:37:44;;;;;;;9.07;4.78;;;;;;;26.80;58.54;100858.16;6156339;23;20487;-80
2023/07/09 09:40:50;;;;;;;6.15;4.35;;;;;;;27.04;59.09;100857.97;6156182;23;20028;-84
2023/07/09 09:43:54;;;;;;;9.98;4.35;;;;;;;27.33;57.09;100849.19;6136108;23;20056;-79
2023/07/09 09:46:58;;;;;;;10.88;4.03;;;;;;;27.44;56.53;100852.47;6155766;23;20068;-80
2023/07/09 09:50:03;;;;;;;7.72;4.07;;;;;;;27.62;54.87;100857.50;6155298;23;20478;-79
2023/07/09 09:53:08;;;;;;;8.27;4.20;;;;;;;28.10;53.74;100855.31;6156676;23;20100;-77
2023/07/09 09:56:24;;;;;;;6.57;4.10;;;;;;;27.92;52.95;100845.78;6157106;23;20076;-81
2023/07/09 09:59:32;;;;;;;6.63;4.35;;;;;;;28.17;51.89;100842.78;6137963;23;20052;-79
2023/07/09 10:02:45;;;;;;;7.50;4.15;;;;;;;27.96;51.37;100828.25;6156133;23;20084;-76
2023/07/09 10:05:59;;;;;;;7.43;4.45;;;;;;;28.43;50.37;100823.47;6155972;23;20108;-77
2023/07/09 10:09:13;;;;;;;5.97;3.90;;;;;;;28.85;49.38;100819.16;6137240;23;20549;-80
2023/07/09 10:12:32;;;;;;;6.80;4.00;;;;;;;29.14;47.92;100821.72;6155546;23;20478;-80
2023/07/09 10:15:47;;;;;;;5.70;3.35;;;;;;;29.16;47.12;100826.88;6155351;23;20028;-79
2023/07/09 10:19:43;;;;;;;8.57;3.47;;;;;;;29.53;46.03;100814.13;6156315;23;20474;-81
2023/07/09 10:22:47;;;;;;;5.60;3.85;;;;;;;29.71;45.83;100801.00;6156463;23;20416;-81
2023/07/09 10:26:11;;;;;;;7.30;3.60;;;;;;;29.90;43.31;100796.75;6156161;23;20096;-83
2023/07/09 10:29:37;;;;;;;7.88;3.90;;;;;;;30.24;40.41;100790.44;6156408;23;20029;-80
2023/07/09 10:32:59;;;;;;;7.30;3.80;;;;;;;30.04;42.34;100789.53;6155973;23;20037;-80
2023/07/09 10:36:30;;;;;;;7.00;3.80;;;;;;;30.23;40.43;100782.56;6156339;23;20079;-80
2023/07/09 10:39:47;;;;;;;6.30;3.30;;;;;;;29.91;42.07;100789.47;6155768;23;20125;-75
2023/07/09 10:43:02;;;;;;;5.55;3.10;;;;;;;30.18;41.64;100782.31;6155855;23;20028;-86
2023/07/09 10:46:17;;;;;;;4.88;2.95;;;;;;;30.62;40.50;100787.22;6126673;23;20085;-82
2023/07/09 10:49:21;;;;;;;6.93;3.65;;;;;;;30.61;40.78;100776.66;6126539;23;20029;-83
2023/07/09 10:52:29;;;;;;;9.07;3.55;;;;;;;30.64;40.48;100782.47;6126569;23;20089;-79
2023/07/09 10:55:43;;;;;;;6.60;3.83;;;;;;;30.74;40.02;100779.34;6126479;23;20028;-79
2023/07/09 10:58:49;;;;;;;7.50;3.90;;;;;;;30.90;40.08;100775.44;6126799;23;20132;-74
2023/07/09 11:02:06;;;;;;;8.13;4.05;;;;;;;30.58;38.68;100769.78;6126569;23;20041;-75
2023/07/09 11:05:10;;;;;;;6.00;4.15;;;;;;;30.42;40.20;100770.19;6126501;23;20036;-77
2023/07/09 11:08:40;;;;;;;9.20;3.47;;;;;;;30.61;39.14;100763.16;6126557;23;20348;-81
2023/07/09 11:11:51;;;;;;;8.32;4.22;;;;;;;30.72;38.25;100765.22;6126405;23;20025;-86
2023/07/09 11:15:57;;;;;;;5.18;3.50;;;;;;;31.58;36.71;100759.78;6126593;23;20400;-87
2023/07/09 11:19:13;;;;;;;9.48;4.18;;;;;;;31.34;37.14;100757.78;6126392;23;20073;-77
2023/07/09 11:22:51;;;;;;;6.18;3.47;;;;;;;30.97;35.08;100754.66;6125843;23;20523;-86
2023/07/09 11:26:17;;;;;;;6.03;3.85;;;;;;;30.74;35.79;100758.59;6125967;23;20028;-82
2023/07/09 11:29:23;;;;;;;9.80;4.00;;;;;;;31.43;37.57;100751.06;6126353;23;20024;-79
2023/07/09 11:32:29;;;;;;;4.28;3.42;;;;;;;31.52;36.29;100748.97;6126398;23;20025;-78
2023/07/09 11:35:55;;;;;;;8.25;4.13;;;;;;;31.57;36.32;100752.72;6126523;23;20106;-77
2023/07/09 11:39:00;;;;;;;14.50;5.85;;;;;;;31.44;37.78;100741.94;6126164;23;20615;-73
2023/07/09 11:42:22;;;;;;;11.18;5.95;;;;;;;31.36;36.70;100729.47;6126012;23;20020;-72
2023/07/09 11:45:32;;;;;;;7.82;4.05;;;;;;;31.13;33.62;100740.72;6126214;23;20361;-73
2023/07/09 11:48:35;;;;;;;6.53;3.72;;;;;;;30.93;33.40;100732.66;6126154;23;20056;-76
2023/07/09 11:51:51;;;;;;;7.13;3.90;;;;;;;30.94;33.54;100733.47;6126161;23;20352;-73
2023/07/09 11:54:55;;;;;;;6.45;4.47;;;;;;;31.25;32.51;100738.22;6126124;23;20112;-72
2023/07/09 11:58:02;;;;;;;6.22;3.78;;;;;;;31.70;34.08;100739.16;6126064;23;20039;-73
2023/07/09 12:01:16;;;;;;;8.38;3.85;;;;;;;31.39;32.44;100734.47;6126123;23;20024;-73
2023/07/09 12:04:24;;;;;;;7.53;3.47;;;;;;;31.51;31.73;100731.94;6126185;23;20084;-71
2023/07/09 12:07:32;;;;;;;6.10;3.40;;;;;;;31.43;32.19;100740.28;6126088;23;20455;-73
2023/07/09 12:10:38;;;;;;;5.55;3.35;;;;;;;31.42;32.13;100717.00;6125931;23;20033;-81
2023/07/09 12:13:41;;;;;;;8.85;4.05;;;;;;;31.60;31.89;100716.34;6125933;23;20029;-74
2023/07/09 12:16:53;;;;;;;8.93;4.28;;;;;;;32.13;31.25;100714.22;6126048;23;20029;-75
2023/07/09 12:19:56;;;;;;;6.38;3.30;;;;;;;32.12;30.81;100712.53;6126013;23;20024;-74
2023/07/09 12:23:20;;;;;;;6.93;4.13;;;;;;;32.28;30.32;100719.31;6125918;23;20468;-74
2023/07/09 12:26:25;;;;;;;8.90;3.55;;;;;;;32.40;29.95;100711.34;6125755;23;20082;-74
2023/07/09 12:29:31;;;;;;;6.50;3.85;;;;;;;32.45;29.94;100705.28;6125932;23;20511;-75
2023/07/09 12:32:44;;;;;;;9.52;4.20;;;;;;;32.36;29.79;100699.28;6124808;23;20037;-75
2023/07/09 12:35:54;;;;;;;9.20;4.22;;;;;;;32.44;31.69;100698.22;6125923;23;20150;-73
2023/07/09 12:39:03;;;;;;;7.90;3.38;;;;;;;32.27;30.99;100695.19;6125701;23;20025;-75
2023/07/09 12:42:20;;;;;;;7.53;3.92;;;;;;;32.10;30.69;100692.16;6125560;23;20077;-76
2023/07/09 12:45:24;;;;;;;6.32;3.63;;;;;;;32.25;29.34;100686.47;6125237;23;20450;-76
2023/07/09 12:52:01;;;;;;;9.70;3.90;;;;;;;32.94;27.98;100682.78;6107759;23;20113;-80
2023/07/09 12:55:05;;;;;;;9.05;3.85;;;;;;;32.87;27.47;100688.25;6125701;23;20044;-77
2023/07/09 12:58:13;;;;;;;9.45;4.05;;;;;;;33.09;27.09;100675.16;6125656;23;20029;-76
2023/07/09 13:01:17;;;;;;;9.55;4.45;;;;;;;33.23;27.52;100675.81;6125642;23;20085;-76
2023/07/09 13:04:20;;;;;;;11.88;4.43;;;;;;;33.33;27.89;100683.41;6125593;23;20365;-75
2023/07/09 13:07:29;;;;;;;7.85;3.83;;;;;;;32.83;28.40;100672.66;6125524;23;20028;-80
2023/07/09 13:10:40;;;;;;;7.22;3.50;;;;;;;33.21;28.14;100666.25;6125541;23;20089;-78
2023/07/09 13:13:57;;;;;;;6.68;3.72;;;;;;;33.55;27.44;100668.38;6125209;23;20064;-75
2023/07/09 13:17:09;;;;;;;6.70;3.92;;;;;;;33.73;27.57;100664.00;6107618;23;20029;-77
2023/07/09 13:20:19;;;;;;;10.52;4.10;;;;;;;33.67;27.29;100654.88;6107698;23;20069;-86
2023/07/09 13:23:29;;;;;;;8.63;4.38;;;;;;;33.84;27.51;100656.94;6108856;23;20048;-82
2023/07/09 13:26:33;;;;;;;8.48;3.78;;;;;;;33.95;26.82;100651.56;6107411;23;20100;-81
2023/07/09 13:29:41;;;;;;;10.35;3.90;;;;;;;34.33;26.28;100650.34;6123360;23;20486;-77
2023/07/09 13:32:52;;;;;;;6.70;4.20;;;;;;;34.56;26.22;100654.19;6123345;23;20101;-77
2023/07/09 13:36:01;;;;;;;8.00;3.78;;;;;;;33.99;26.37;100657.34;6122810;23;20024;-76
2023/07/09 13:39:12;;;;;;;7.60;4.10;;;;;;;34.29;26.97;100656.50;6123253;23;20087;-77
2023/07/09 13:42:17;;;;;;;5.15;3.60;;;;;;;34.86;26.40;100652.19;6122577;23;20416;-75
2023/07/09 13:45:24;;;;;;;8.68;4.10;;;;;;;35.18;26.06;100647.19;6151444;23;20379;-77
2023/07/09 13:48:31;;;;;;;7.90;4.10;;;;;;;35.30;25.84;100644.44;6152124;23;20055;-78
2023/07/09 13:51:35;;;;;;;7.10;3.85;;;;;;;34.99;25.15;100639.41;6152033;23;20502;-79
2023/07/09 13:54:39;;;;;;;8.88;4.22;;;;;;;34.95;24.12;100637.16;6152153;23;20032;-77
2023/07/09 13:58:22;;;;;;;6.28;3.88;;;;;;;35.05;24.47;100630.34;6152575;23;20533;-79
2023/07/09 14:01:26;;;;;;;7.10;4.47;;;;;;;35.12;24.71;100622.88;6154661;23;20107;-82
2023/07/09 14:04:31;;;;;;;5.97;3.38;;;;;;;34.75;25.19;100634.00;6156118;23;20056;-81
2023/07/09 14:07:40;;;;;;;6.65;3.42;;;;;;;34.54;25.37;100630.00;6156279;23;20059;-80
2023/07/09 14:10:46;;;;;;;6.15;3.47;;;;;;;34.09;25.34;100626.97;6156366;23;20040;-83
2023/07/09 14:13:48;;;;;;;7.90;3.80;;;;;;;34.28;25.35;100627.72;6138438;23;20025;-80
2023/07/09 14:16:53;;;;;;;8.90;4.28;;;;;;;34.07;25.51;100620.94;6156224;23;20088;-80
2023/07/09 14:20:08;;;;;;;7.50;4.07;;;;;;;33.85;26.18;100624.16;6138043;23;20040;-74
2023/07/09 14:23:19;;;;;;;8.32;3.70;;;;;;;34.00;26.27;100626.44;6138008;23;20202;-74
2023/07/09 14:26:23;;;;;;;7.88;3.83;;;;;;;33.89;26.72;100622.66;6156287;23;20104;-73
2023/07/09 14:29:27;;;;;;;6.95;3.90;;;;;;;33.83;26.46;100620.84;6156282;23;20124;-77
2023/07/09 14:32:41;;;;;;;7.80;4.18;;;;;;;33.71;26.88;100623.53;6138006;23;20033;-75
2023/07/09 14:35:49;;;;;;;8.02;3.42;;;;;;;33.18;27.07;100623.34;6155986;23;20024;-77
2023/07/09 14:38:54;;;;;;;7.90;3.50;;;;;;;33.22;27.25;100627.28;6155973;23;20032;-74
2023/07/09 14:41:59;;;;;;;8.65;4.32;;;;;;;33.30;27.13;100626.97;6155814;23;20024;-75
2023/07/09 14:45:03;;;;;;;10.85;4.50;;;;;;;33.23;28.65;100623.53;6155875;23;20032;-74